createdAt,value
2018-02-18T00:00:27.939Z,-0.25
2018-02-18T00:01:36.763Z,-0.22
2018-02-18T00:02:45.587Z,-0.26
2018-02-18T00:03:54.413Z,-0.31
2018-02-18T00:05:03.293Z,-0.22
2018-02-18T00:06:12.388Z,-0.31
2018-02-18T00:07:21.259Z,-0.29
2018-02-18T00:08:30.036Z,-0.26
2018-02-18T00:09:38.858Z,-0.26
2018-02-18T00:10:47.989Z,-0.36
2018-02-18T00:11:56.821Z,-0.29
2018-02-18T00:13:05.644Z,-0.39
2018-02-18T00:14:14.470Z,-0.36
2018-02-18T00:15:23.294Z,-0.42
2018-02-18T00:16:32.416Z,-0.36
2018-02-18T00:17:41.296Z,-0.44
2018-02-18T00:18:50.064Z,-0.44
2018-02-18T00:19:58.886Z,-0.43
2018-02-18T00:21:07.713Z,-0.33
2018-02-18T00:22:16.533Z,-0.39
2018-02-18T00:23:25.359Z,-0.46
2018-02-18T00:24:34.182Z,-0.37
2018-02-18T00:25:43.010Z,-0.4
2018-02-18T00:26:51.831Z,-0.4
2018-02-18T00:28:01.084Z,-0.4
2018-02-18T00:29:09.906Z,-0.39
2018-02-18T00:30:18.730Z,-0.46
2018-02-18T00:31:27.553Z,-0.49
2018-02-18T00:32:36.378Z,-0.46
2018-02-18T00:33:45.352Z,-0.44
2018-02-18T00:34:54.176Z,-0.44
2018-02-18T00:36:02.999Z,-0.44
2018-02-18T00:37:11.822Z,-0.42
2018-02-18T00:38:20.647Z,-0.49
2018-02-18T00:39:29.472Z,-0.47
2018-02-18T00:40:38.298Z,-0.51
2018-02-18T00:41:47.121Z,-0.44
2018-02-18T00:42:55.944Z,-0.54
2018-02-18T00:44:04.771Z,-0.62
2018-02-18T00:45:13.698Z,-0.58
2018-02-18T00:46:22.796Z,-0.6
2018-02-18T00:47:31.620Z,-0.62
2018-02-18T00:48:40.443Z,-0.54
2018-02-18T00:49:49.264Z,-0.62
2018-02-18T00:50:58.390Z,-0.64
2018-02-18T00:52:07.490Z,-0.64
2018-02-18T00:53:16.313Z,-0.62
2018-02-18T00:54:25.139Z,-0.58
2018-02-18T00:55:33.960Z,-0.61
2018-02-18T00:56:42.935Z,-0.54
2018-02-18T00:57:51.759Z,-0.61
2018-02-18T00:59:00.585Z,-0.55
2018-02-18T01:00:09.410Z,-0.61
2018-02-18T01:01:18.233Z,-0.6
2018-02-18T01:02:27.485Z,-0.64
2018-02-18T01:03:36.307Z,-0.65
2018-02-18T01:04:45.135Z,-0.69
2018-02-18T01:05:53.956Z,-0.67
2018-02-18T01:07:02.780Z,-0.67
2018-02-18T01:08:11.929Z,-0.67
2018-02-18T01:09:21.031Z,-0.78
2018-02-18T01:10:29.856Z,-0.76
2018-02-18T01:11:38.680Z,-0.76
2018-02-18T01:12:47.505Z,-0.67
2018-02-18T01:13:56.326Z,-0.67
2018-02-18T01:15:05.150Z,-0.69
2018-02-18T01:16:13.972Z,-0.7
2018-02-18T01:17:22.796Z,-0.67
2018-02-18T01:18:31.620Z,-0.79
2018-02-18T01:19:40.442Z,-0.8
2018-02-18T01:20:49.267Z,-0.83
2018-02-18T01:21:58.088Z,-0.72
2018-02-18T01:23:06.913Z,-0.83
2018-02-18T01:24:15.736Z,-0.76
2018-02-18T01:25:24.859Z,-0.79
2018-02-18T01:26:33.683Z,-0.79
2018-02-18T01:27:42.511Z,-0.79
2018-02-18T01:28:51.332Z,-0.86
2018-02-18T01:30:00.156Z,-0.85
2018-02-18T01:31:09.280Z,-0.86
2018-02-18T01:32:18.103Z,-0.89
2018-02-18T01:33:26.924Z,-0.85
2018-02-18T01:34:35.750Z,-0.85
2018-02-18T01:35:44.579Z,-0.94
2018-02-18T01:36:53.676Z,-0.94
2018-02-18T01:38:02.531Z,-0.99
2018-02-18T01:39:11.327Z,-0.86
2018-02-18T01:40:20.148Z,-0.99
2018-02-18T01:41:28.974Z,-0.83
2018-02-18T01:42:37.947Z,-0.95
2018-02-18T01:43:46.774Z,-0.99
2018-02-18T01:44:55.598Z,-0.95
2018-02-18T01:46:04.700Z,-0.97
2018-02-18T01:47:13.525Z,-0.95
2018-02-18T01:48:22.449Z,-1.09
2018-02-18T01:49:31.270Z,-0.97
2018-02-18T01:50:40.370Z,-0.98
2018-02-18T01:51:49.480Z,-1.09
2018-02-18T01:52:58.305Z,-1.02
2018-02-18T01:54:07.126Z,-1.01
2018-02-18T01:55:15.953Z,-0.99
2018-02-18T01:56:24.778Z,-1.01
2018-02-18T01:57:33.603Z,-1.04
2018-02-18T01:58:42.427Z,-1.04
2018-02-18T01:59:51.402Z,-1.01
2018-02-18T02:01:00.499Z,-1.09
2018-02-18T02:02:09.323Z,-1.05
2018-02-18T02:03:18.149Z,-1.04
2018-02-18T02:04:26.978Z,-1.07
2018-02-18T02:05:35.797Z,-1.1
2018-02-18T02:06:44.890Z,-1.07
2018-02-18T02:07:53.715Z,-1.05
2018-02-18T02:09:02.541Z,-1.1
2018-02-18T02:10:11.366Z,-1.05
2018-02-18T02:11:20.191Z,-1.07
2018-02-18T02:12:29.012Z,-1.13
2018-02-18T02:13:37.836Z,-1.09
2018-02-18T02:14:46.659Z,-1.13
2018-02-18T02:15:55.486Z,-1.1
2018-02-18T02:17:04.410Z,-1.1
2018-02-18T02:18:13.233Z,-1.12
2018-02-18T02:19:22.057Z,-1.09
2018-02-18T02:20:30.881Z,-1.23
2018-02-18T02:21:39.703Z,-1.27
2018-02-18T02:22:48.577Z,-1.16
2018-02-18T02:23:57.405Z,-1.16
2018-02-18T02:25:06.497Z,-1.13
2018-02-18T02:26:15.316Z,-1.13
2018-02-18T02:27:24.419Z,-1.13
2018-02-18T02:28:33.245Z,-1.19
2018-02-18T02:29:42.064Z,-1.25
2018-02-18T02:30:50.888Z,-1.13
2018-02-18T02:31:59.715Z,-1.2
2018-02-18T02:33:08.538Z,-1.23
2018-02-18T02:34:17.512Z,-1.22
2018-02-18T02:35:26.337Z,-1.23
2018-02-18T02:36:35.164Z,-1.2
2018-02-18T02:37:43.989Z,-1.3
2018-02-18T02:38:53.093Z,-1.25
2018-02-18T02:40:02.223Z,-1.34
2018-02-18T02:41:11.043Z,-1.17
2018-02-18T02:42:20.148Z,-1.27
2018-02-18T02:43:28.975Z,-1.3
2018-02-18T02:44:38.079Z,-1.34
2018-02-18T02:45:47.003Z,-1.25
2018-02-18T02:46:56.100Z,-1.27
2018-02-18T02:48:04.926Z,-1.31
2018-02-18T02:49:13.751Z,-1.34
2018-02-18T02:50:22.853Z,-1.33
2018-02-18T02:51:31.826Z,-1.27
2018-02-18T02:52:40.651Z,-1.23
2018-02-18T02:53:49.475Z,-1.37
2018-02-18T02:54:58.296Z,-1.34
2018-02-18T02:56:07.396Z,-1.37
2018-02-18T02:57:16.318Z,-1.4
2018-02-18T02:58:25.146Z,-1.34
2018-02-18T02:59:34.240Z,-1.31
2018-02-18T03:00:43.064Z,-1.41
2018-02-18T03:01:51.888Z,-1.35
2018-02-18T03:03:00.820Z,-1.37
2018-02-18T03:04:09.636Z,-1.37
2018-02-18T03:05:18.460Z,-1.4
2018-02-18T03:06:27.281Z,-1.35
2018-02-18T03:07:36.118Z,-1.38
2018-02-18T03:08:45.090Z,-1.35
2018-02-18T03:09:53.911Z,-1.37
2018-02-18T03:11:02.753Z,-1.37
2018-02-18T03:12:11.562Z,-1.35
2018-02-18T03:13:20.384Z,-1.35
2018-02-18T03:14:30.068Z,-1.37
2018-02-18T03:15:38.891Z,-1.38
2018-02-18T03:16:47.720Z,-1.4
2018-02-18T03:17:56.815Z,-1.37
2018-02-18T03:19:05.643Z,-1.35
2018-02-18T03:20:14.616Z,-1.46
2018-02-18T03:21:23.439Z,-1.37
2018-02-18T03:22:32.263Z,-1.38
2018-02-18T03:23:41.085Z,-1.33
2018-02-18T03:24:49.908Z,-1.38
2018-02-18T03:25:58.732Z,-1.35
2018-02-18T03:27:07.557Z,-1.35
2018-02-18T03:28:16.383Z,-1.37
2018-02-18T03:29:25.481Z,-1.34
2018-02-18T03:30:34.307Z,-1.37
2018-02-18T03:31:43.416Z,-1.34
2018-02-18T03:32:52.242Z,-1.38
2018-02-18T03:34:01.063Z,-1.35
2018-02-18T03:35:10.438Z,-1.4
2018-02-18T03:36:19.260Z,-1.4
2018-02-18T03:37:28.085Z,-1.34
2018-02-18T03:38:36.906Z,-1.37
2018-02-18T03:39:45.729Z,-1.48
2018-02-18T03:40:54.552Z,-1.41
2018-02-18T03:42:03.376Z,-1.49
2018-02-18T03:43:12.625Z,-1.46
2018-02-18T03:44:21.450Z,-1.41
2018-02-18T03:45:30.272Z,-1.49
2018-02-18T03:46:39.104Z,-1.43
2018-02-18T03:47:47.929Z,-1.37
2018-02-18T03:48:56.901Z,-1.38
2018-02-18T03:50:05.725Z,-1.48
2018-02-18T03:51:14.546Z,-1.38
2018-02-18T03:52:23.369Z,-1.46
2018-02-18T03:53:32.192Z,-1.45
2018-02-18T03:54:41.014Z,-1.48
2018-02-18T03:55:49.843Z,-1.49
2018-02-18T03:56:58.663Z,-1.51
2018-02-18T03:58:07.487Z,-1.51
2018-02-18T03:59:16.310Z,-1.51
2018-02-18T04:00:25.487Z,-1.45
2018-02-18T04:01:34.310Z,-1.46
2018-02-18T04:02:43.406Z,-1.49
2018-02-18T04:03:52.228Z,-1.49
2018-02-18T04:05:01.333Z,-1.51
2018-02-18T04:06:10.454Z,-1.51
2018-02-18T04:07:19.276Z,-1.48
2018-02-18T04:08:28.100Z,-1.52
2018-02-18T04:09:36.924Z,-1.54
2018-02-18T04:10:45.747Z,-1.58
2018-02-18T04:11:54.619Z,-1.58
2018-02-18T04:13:03.443Z,-1.59
2018-02-18T04:14:12.264Z,-1.55
2018-02-18T04:15:21.086Z,-1.59
2018-02-18T04:16:29.921Z,-1.64
2018-02-18T04:17:38.883Z,-1.61
2018-02-18T04:18:47.711Z,-1.61
2018-02-18T04:19:56.807Z,-1.62
2018-02-18T04:21:05.631Z,-1.61
2018-02-18T04:22:14.454Z,-1.59
2018-02-18T04:23:23.274Z,-1.62
2018-02-18T04:24:32.099Z,-1.59
2018-02-18T04:25:40.924Z,-1.62
2018-02-18T04:26:50.025Z,-1.55
2018-02-18T04:27:58.848Z,-1.49
2018-02-18T04:29:07.770Z,-1.58
2018-02-18T04:30:16.593Z,-1.62
2018-02-18T04:31:25.416Z,-1.54
2018-02-18T04:32:34.237Z,-1.61
2018-02-18T04:33:43.061Z,-1.61
2018-02-18T04:34:52.258Z,-1.62
2018-02-18T04:36:01.081Z,-1.58
2018-02-18T04:37:09.905Z,-1.52
2018-02-18T04:38:18.729Z,-1.54
2018-02-18T04:39:27.551Z,-1.56
2018-02-18T04:40:36.476Z,-1.58
2018-02-18T04:41:45.299Z,-1.54
2018-02-18T04:42:54.119Z,-1.52
2018-02-18T04:44:02.941Z,-1.58
2018-02-18T04:45:11.762Z,-1.51
2018-02-18T04:46:20.586Z,-1.58
2018-02-18T04:47:29.683Z,-1.59
2018-02-18T04:48:38.511Z,-1.61
2018-02-18T04:49:47.605Z,-1.64
2018-02-18T04:50:56.427Z,-1.58
2018-02-18T04:52:05.652Z,-1.74
2018-02-18T04:53:14.475Z,-1.76
2018-02-18T04:54:23.299Z,-1.69
2018-02-18T04:55:32.121Z,-1.7
2018-02-18T04:56:40.945Z,-1.67
2018-02-18T04:57:49.768Z,-1.61
2018-02-18T04:58:58.590Z,-1.7
2018-02-18T05:00:07.413Z,-1.69
2018-02-18T05:01:16.240Z,-1.73
2018-02-18T05:02:25.058Z,-1.76
2018-02-18T05:03:33.879Z,-1.7
2018-02-18T05:04:42.701Z,-1.73
2018-02-18T05:05:51.524Z,-1.62
2018-02-18T05:07:00.347Z,-1.64
2018-02-18T05:08:09.172Z,-1.69
2018-02-18T05:09:18.297Z,-1.69
2018-02-18T05:10:27.399Z,-1.77
2018-02-18T05:11:36.224Z,-1.79
2018-02-18T05:12:45.043Z,-1.74
2018-02-18T05:13:53.866Z,-1.8
2018-02-18T05:15:02.972Z,-1.76
2018-02-18T05:16:12.073Z,-1.82
2018-02-18T05:17:20.899Z,-1.84
2018-02-18T05:18:29.998Z,-1.8
2018-02-18T05:19:38.820Z,-1.8
2018-02-18T05:20:47.791Z,-1.85
2018-02-18T05:21:56.615Z,-1.82
2018-02-18T05:23:05.721Z,-1.87
2018-02-18T05:24:14.539Z,-1.82
2018-02-18T05:25:23.361Z,-1.88
2018-02-18T05:26:32.234Z,-1.73
2018-02-18T05:27:41.057Z,-1.76
2018-02-18T05:28:49.888Z,-1.82
2018-02-18T05:29:58.987Z,-1.8
2018-02-18T05:31:07.809Z,-1.84
2018-02-18T05:32:16.630Z,-1.95
2018-02-18T05:33:25.454Z,-1.94
2018-02-18T05:34:34.278Z,-1.84
2018-02-18T05:35:43.101Z,-1.87
2018-02-18T05:36:51.925Z,-1.92
2018-02-18T05:38:00.999Z,-1.92
2018-02-18T05:39:09.820Z,-1.95
2018-02-18T05:40:18.646Z,-1.95
2018-02-18T05:41:27.466Z,-1.85
2018-02-18T05:42:36.290Z,-1.91
2018-02-18T05:43:45.214Z,-1.91
2018-02-18T05:44:54.037Z,-1.88
2018-02-18T05:46:02.857Z,-1.94
2018-02-18T05:47:11.682Z,-1.95
2018-02-18T05:48:20.507Z,-1.91
2018-02-18T05:49:29.331Z,-1.95
2018-02-18T05:50:38.151Z,-1.88
2018-02-18T05:51:46.974Z,-1.85
2018-02-18T05:52:55.797Z,-1.91
2018-02-18T05:54:04.618Z,-1.97
2018-02-18T05:55:14.013Z,-1.91
2018-02-18T05:56:22.837Z,-1.94
2018-02-18T05:57:31.938Z,-1.92
2018-02-18T05:58:40.757Z,-1.9
2018-02-18T05:59:49.861Z,-1.95
2018-02-18T06:00:58.785Z,-1.88
2018-02-18T06:02:07.615Z,-1.92
2018-02-18T06:03:16.430Z,-1.98
2018-02-18T06:04:25.251Z,-1.95
2018-02-18T06:05:34.073Z,-1.95
2018-02-18T06:06:43.196Z,-2
2018-02-18T06:07:52.020Z,-1.94
2018-02-18T06:09:00.842Z,-1.98
2018-02-18T06:10:09.667Z,-1.98
2018-02-18T06:11:18.769Z,-1.97
2018-02-18T06:12:27.920Z,-1.95
2018-02-18T06:13:37.024Z,-1.97
2018-02-18T06:14:46.132Z,-1.9
2018-02-18T06:15:55.495Z,-1.94
2018-02-18T06:17:04.376Z,-1.9
2018-02-18T06:18:13.361Z,-1.95
2018-02-18T06:19:22.777Z,-1.92
2018-02-18T06:20:31.842Z,-1.94
2018-02-18T06:21:40.878Z,-1.85
2018-02-18T06:22:49.765Z,-1.94
2018-02-18T06:23:58.764Z,-1.94
2018-02-18T06:25:07.858Z,-2.02
2018-02-18T06:26:17.223Z,-2
2018-02-18T06:27:26.759Z,-2.03
2018-02-18T06:28:35.629Z,-2.05
2018-02-18T06:29:44.619Z,-1.94
2018-02-18T06:30:53.504Z,-2.06
2018-02-18T06:32:02.334Z,-2.02
2018-02-18T06:33:11.383Z,-2.05
2018-02-18T06:34:20.288Z,-2.03
2018-02-18T06:35:29.397Z,-2.05
2018-02-18T06:36:38.456Z,-2
2018-02-18T06:37:47.280Z,-2.13
2018-02-18T06:38:56.156Z,-2.09
2018-02-18T06:40:05.495Z,-2.06
2018-02-18T06:41:14.326Z,-2.06
2018-02-18T06:42:23.216Z,-2.06
2018-02-18T06:43:32.590Z,-2.09
2018-02-18T06:44:41.659Z,-2.02
2018-02-18T06:45:50.481Z,-2.02
2018-02-18T06:46:59.584Z,-1.98
2018-02-18T06:48:08.406Z,-1.98
2018-02-18T06:49:17.228Z,-1.91
2018-02-18T06:50:26.051Z,-1.95
2018-02-18T06:51:34.872Z,-1.79
2018-02-18T06:52:43.846Z,-1.8
2018-02-18T06:53:52.678Z,-1.82
2018-02-18T06:55:01.502Z,-1.77
2018-02-18T06:56:10.597Z,-1.7
2018-02-18T06:57:19.419Z,-1.72
2018-02-18T06:58:28.341Z,-1.73
2018-02-18T06:59:37.165Z,-1.61
2018-02-18T07:00:46.269Z,-1.56
2018-02-18T07:01:55.088Z,-1.59
2018-02-18T07:03:03.913Z,-1.58
2018-02-18T07:04:13.138Z,-1.54
2018-02-18T07:05:21.962Z,-1.49
2018-02-18T07:06:30.788Z,-1.48
2018-02-18T07:07:39.888Z,-1.51
2018-02-18T07:08:48.712Z,-1.52
2018-02-18T07:09:57.835Z,-1.48
2018-02-18T07:11:06.656Z,-1.48
2018-02-18T07:12:15.480Z,-1.49
2018-02-18T07:13:24.576Z,-1.43
2018-02-18T07:14:33.400Z,-1.46
2018-02-18T07:15:42.526Z,-1.48
2018-02-18T07:16:51.348Z,-1.35
2018-02-18T07:18:00.219Z,-1.37
2018-02-18T07:19:08.996Z,-1.35
2018-02-18T07:20:18.093Z,-1.33
2018-02-18T07:21:27.195Z,-1.46
2018-02-18T07:22:36.017Z,-1.35
2018-02-18T07:23:44.843Z,-1.35
2018-02-18T07:24:53.669Z,-1.27
2018-02-18T07:26:02.768Z,-1.37
2018-02-18T07:27:11.743Z,-1.3
2018-02-18T07:28:20.844Z,-1.31
2018-02-18T07:29:29.745Z,-1.19
2018-02-18T07:30:59.103Z,-1.22
2018-02-18T07:32:08.626Z,-1.2
2018-02-18T07:33:17.496Z,-1.2
2018-02-18T07:34:26.321Z,-1.27
2018-02-18T07:35:35.181Z,-1.16
2018-02-18T07:36:44.006Z,-1.15
2018-02-18T07:37:53.494Z,-1.28
2018-02-18T07:39:02.333Z,-1.19
2018-02-18T07:40:11.169Z,-1.2
2018-02-18T07:41:20.030Z,-1.15
2018-02-18T07:42:29.303Z,-1.09
2018-02-18T07:43:38.524Z,-1.05
2018-02-18T07:44:47.438Z,-0.99
2018-02-18T07:45:56.516Z,-1.05
2018-02-18T07:47:05.647Z,-1.07
2018-02-18T07:48:15.098Z,-0.98
2018-02-18T07:49:24.338Z,-0.97
2018-02-18T07:50:33.468Z,-0.99
2018-02-18T07:51:42.875Z,-0.92
2018-02-18T07:52:51.734Z,-0.95
2018-02-18T07:54:00.865Z,-0.98
2018-02-18T07:55:09.903Z,-0.83
2018-02-18T07:56:19.034Z,-0.79
2018-02-18T07:57:27.856Z,-0.8
2018-02-18T07:58:36.682Z,-0.75
2018-02-18T07:59:45.506Z,-0.82
2018-02-18T08:00:54.330Z,-0.83
2018-02-18T08:02:03.154Z,-0.61
2018-02-18T08:03:11.996Z,-0.64
2018-02-18T08:04:20.808Z,-0.54
2018-02-18T08:05:29.637Z,-0.61
2018-02-18T08:06:38.478Z,-0.55
2018-02-18T08:07:47.280Z,-0.64
2018-02-18T08:08:56.424Z,-0.52
2018-02-18T08:10:05.253Z,-0.47
2018-02-18T08:11:14.078Z,-0.49
2018-02-18T08:12:23.202Z,-0.39
2018-02-18T08:13:32.028Z,-0.44
2018-02-18T08:14:40.849Z,-0.47
2018-02-18T08:15:49.675Z,-0.44
2018-02-18T08:16:58.499Z,-0.36
2018-02-18T08:18:07.621Z,-0.39
2018-02-18T08:19:16.448Z,-0.39
2018-02-18T08:20:25.273Z,-0.29
2018-02-18T08:21:34.098Z,-0.33
2018-02-18T08:22:42.922Z,-0.23
2018-02-18T08:23:52.047Z,-0.25
2018-02-18T08:25:00.872Z,-0.18
2018-02-18T08:26:09.696Z,-0.18
2018-02-18T08:27:18.525Z,-0.15
2018-02-18T08:28:27.349Z,-0.21
2018-02-18T08:29:36.325Z,-0.08
2018-02-18T08:30:45.152Z,-0.01
2018-02-18T08:31:53.977Z,-0.01
2018-02-18T08:33:03.079Z,-0.07
2018-02-18T08:34:11.902Z,-0.05
2018-02-18T08:35:20.828Z,-0.01
2018-02-18T08:36:29.654Z,0
2018-02-18T08:37:38.479Z,0.04
2018-02-18T08:38:47.589Z,0.08
2018-02-18T08:39:56.416Z,0.15
2018-02-18T08:41:05.239Z,0.17
2018-02-18T08:42:14.068Z,0.28
2018-02-18T08:43:22.893Z,0.28
2018-02-18T08:44:31.719Z,0.32
2018-02-18T08:45:40.543Z,0.29
2018-02-18T08:46:49.798Z,0.39
2018-02-18T08:47:58.624Z,0.41
2018-02-18T08:49:07.448Z,0.38
2018-02-18T08:50:16.280Z,0.39
2018-02-18T08:51:25.099Z,0.41
2018-02-18T08:52:33.925Z,0.57
2018-02-18T08:53:42.749Z,0.5
2018-02-18T08:54:51.577Z,0.57
2018-02-18T08:56:00.684Z,0.62
2018-02-18T08:57:09.801Z,0.73
2018-02-18T08:58:18.634Z,0.75
2018-02-18T08:59:27.472Z,0.79
2018-02-18T09:00:36.310Z,0.87
2018-02-18T09:01:45.147Z,0.86
2018-02-18T09:02:53.979Z,0.93
2018-02-18T09:04:02.914Z,0.94
2018-02-18T09:05:11.751Z,1.02
2018-02-18T09:06:20.580Z,0.97
2018-02-18T09:07:29.689Z,1.02
2018-02-18T09:08:38.516Z,0.98
2018-02-18T09:09:47.493Z,1.04
2018-02-18T09:10:56.320Z,1.02
2018-02-18T09:12:05.146Z,1.08
2018-02-18T09:13:13.970Z,1.09
2018-02-18T09:14:22.798Z,1.11
2018-02-18T09:15:31.730Z,1.11
2018-02-18T09:16:40.555Z,1.18
2018-02-18T09:17:49.385Z,1.16
2018-02-18T09:18:58.213Z,1.3
2018-02-18T09:20:07.043Z,1.34
2018-02-18T09:21:16.173Z,1.27
2018-02-18T09:22:25.276Z,1.29
2018-02-18T09:23:34.114Z,1.33
2018-02-18T09:24:42.937Z,1.36
2018-02-18T09:25:52.044Z,1.41
2018-02-18T09:27:01.249Z,1.4
2018-02-18T09:28:10.127Z,1.44
2018-02-18T09:29:19.233Z,1.48
2018-02-18T09:30:28.057Z,1.48
2018-02-18T09:31:37.160Z,1.47
2018-02-18T09:32:46.291Z,1.58
2018-02-18T09:33:55.115Z,1.62
2018-02-18T09:35:03.942Z,1.69
2018-02-18T09:36:12.768Z,1.7
2018-02-18T09:37:21.594Z,1.68
2018-02-18T09:38:30.422Z,1.7
2018-02-18T09:39:39.528Z,1.69
2018-02-18T09:40:48.391Z,1.77
2018-02-18T09:41:57.191Z,1.77
2018-02-18T09:43:06.023Z,1.79
2018-02-18T09:44:14.994Z,1.79
2018-02-18T09:45:23.820Z,1.83
2018-02-18T09:46:32.650Z,1.88
2018-02-18T09:47:41.476Z,1.95
2018-02-18T09:48:50.308Z,2.02
2018-02-18T09:49:59.282Z,1.98
2018-02-18T09:51:08.108Z,1.95
2018-02-18T09:52:16.939Z,2.03
2018-02-18T09:53:25.760Z,1.95
2018-02-18T09:54:34.595Z,2.03
2018-02-18T09:55:43.424Z,1.95
2018-02-18T09:56:52.252Z,2.16
2018-02-18T09:58:01.081Z,2.14
2018-02-18T09:59:09.906Z,2.18
2018-02-18T10:00:18.735Z,2.21
2018-02-18T10:01:27.613Z,2.28
2018-02-18T10:02:36.458Z,2.1
2018-02-18T10:03:45.287Z,2.1
2018-02-18T10:04:54.395Z,2.07
2018-02-18T10:06:03.227Z,2.17
2018-02-18T10:07:12.212Z,2.14
2018-02-18T10:08:21.039Z,2.3
2018-02-18T10:09:29.867Z,2.34
2018-02-18T10:10:38.696Z,2.35
2018-02-18T10:11:47.529Z,2.41
2018-02-18T10:12:56.504Z,2.54
2018-02-18T10:14:05.333Z,2.56
2018-02-18T10:15:14.161Z,2.6
2018-02-18T10:16:22.988Z,2.66
2018-02-18T10:17:31.823Z,2.59
2018-02-18T10:18:40.667Z,2.64
2018-02-18T10:19:49.504Z,2.79
2018-02-18T10:20:58.334Z,2.79
2018-02-18T10:22:07.165Z,2.77
2018-02-18T10:23:15.990Z,2.77
2018-02-18T10:24:25.091Z,2.72
2018-02-18T10:25:33.920Z,2.78
2018-02-18T10:26:42.751Z,2.9
2018-02-18T10:27:51.578Z,3
2018-02-18T10:29:00.413Z,3.06
2018-02-18T10:30:09.262Z,3.08
2018-02-18T10:31:18.092Z,3.14
2018-02-18T10:32:26.925Z,3.15
2018-02-18T10:33:35.768Z,3.31
2018-02-18T10:34:44.594Z,3.24
2018-02-18T10:35:53.422Z,3.35
2018-02-18T10:37:02.250Z,3.24
2018-02-18T10:38:11.078Z,3.33
2018-02-18T10:39:19.906Z,3.42
2018-02-18T10:40:28.734Z,3.36
2018-02-18T10:41:37.565Z,3.42
2018-02-18T10:42:46.393Z,3.48
2018-02-18T10:43:55.424Z,3.5
2018-02-18T10:45:04.532Z,3.48
2018-02-18T10:46:13.359Z,3.5
2018-02-18T10:47:22.186Z,3.61
2018-02-18T10:48:31.016Z,3.7
2018-02-18T10:49:39.997Z,3.69
2018-02-18T10:50:48.828Z,3.84
2018-02-18T10:51:57.661Z,3.93
2018-02-18T10:53:06.768Z,3.94
2018-02-18T10:54:15.657Z,4.04
2018-02-18T10:55:24.580Z,4.05
2018-02-18T10:56:33.418Z,4.09
2018-02-18T10:57:42.253Z,4.18
2018-02-18T10:58:51.083Z,4.14
2018-02-18T11:00:00.219Z,4.32
2018-02-18T11:01:09.149Z,4.37
2018-02-18T11:02:18.258Z,4.42
2018-02-18T11:03:27.088Z,4.37
2018-02-18T11:04:35.920Z,4.26
2018-02-18T11:05:44.750Z,4.23
2018-02-18T11:06:53.831Z,4.24
2018-02-18T11:08:02.660Z,4.33
2018-02-18T11:09:11.492Z,4.37
2018-02-18T11:10:20.324Z,4.36
2018-02-18T11:11:29.167Z,4.52
2018-02-18T11:12:38.324Z,4.6
2018-02-18T11:13:47.155Z,4.6
2018-02-18T11:14:56.260Z,4.67
2018-02-18T11:16:05.092Z,4.73
2018-02-18T11:17:13.922Z,4.73
2018-02-18T11:18:22.953Z,4.7
2018-02-18T11:19:32.062Z,4.82
2018-02-18T11:20:40.891Z,4.92
2018-02-18T11:21:49.720Z,4.91
2018-02-18T11:22:58.551Z,4.78
2018-02-18T11:24:07.381Z,4.82
2018-02-18T11:25:16.217Z,4.73
2018-02-18T11:26:25.322Z,4.8
2018-02-18T11:27:34.153Z,4.94
2018-02-18T11:28:42.989Z,5
2018-02-18T11:29:52.250Z,4.97
2018-02-18T11:31:01.367Z,4.92
2018-02-18T11:32:10.198Z,4.92
2018-02-18T11:33:19.028Z,5
2018-02-18T11:34:27.857Z,4.96
2018-02-18T11:35:36.962Z,5.03
2018-02-18T11:36:46.068Z,5.09
2018-02-18T11:37:54.898Z,4.99
2018-02-18T11:39:03.728Z,5.15
2018-02-18T11:40:12.560Z,5.15
2018-02-18T11:41:21.491Z,5.1
2018-02-18T11:42:30.323Z,5.13
2018-02-18T11:43:39.174Z,5.21
2018-02-18T11:44:48.005Z,5.28
2018-02-18T11:45:56.837Z,5.33
2018-02-18T11:47:05.884Z,5.42
2018-02-18T11:48:14.793Z,5.33
2018-02-18T11:49:23.624Z,5.43
2018-02-18T11:50:32.462Z,5.4
2018-02-18T11:51:41.573Z,5.46
2018-02-18T11:52:50.402Z,5.49
2018-02-18T11:53:59.230Z,5.6
2018-02-18T11:55:08.067Z,5.63
2018-02-18T11:56:16.897Z,5.64
2018-02-18T11:57:25.727Z,5.68
2018-02-18T11:58:34.660Z,5.68
2018-02-18T11:59:43.492Z,5.71
2018-02-18T12:00:52.322Z,5.68
2018-02-18T12:02:01.155Z,5.68
2018-02-18T12:03:09.987Z,5.67
2018-02-18T12:04:18.975Z,5.68
2018-02-18T12:05:27.803Z,5.65
2018-02-18T12:06:36.637Z,5.64
2018-02-18T12:07:45.470Z,5.58
2018-02-18T12:08:54.303Z,5.67
2018-02-18T12:10:03.289Z,5.75
2018-02-18T12:11:12.398Z,5.9
2018-02-18T12:12:21.228Z,6
2018-02-18T12:13:30.063Z,6
2018-02-18T12:14:39.168Z,6.03
2018-02-18T12:15:48.435Z,6.04
2018-02-18T12:16:57.270Z,6.14
2018-02-18T12:18:06.105Z,6.04
2018-02-18T12:19:14.936Z,6.21
2018-02-18T12:20:23.772Z,6.18
2018-02-18T12:21:32.606Z,6.28
2018-02-18T12:22:41.438Z,6.43
2018-02-18T12:23:50.273Z,6.4
2018-02-18T12:24:59.123Z,6.41
2018-02-18T12:26:07.953Z,6.37
2018-02-18T12:27:16.788Z,6.4
2018-02-18T12:28:25.620Z,6.51
2018-02-18T12:29:34.456Z,6.61
2018-02-18T12:30:43.572Z,6.55
2018-02-18T12:31:52.400Z,6.55
2018-02-18T12:33:01.232Z,6.64
2018-02-18T12:34:10.065Z,6.66
2018-02-18T12:35:18.904Z,6.66
2018-02-18T12:36:27.731Z,6.61
2018-02-18T12:37:36.563Z,6.64
2018-02-18T12:38:45.397Z,6.61
2018-02-18T12:39:54.231Z,6.64
2018-02-18T12:41:03.065Z,6.59
2018-02-18T12:42:11.898Z,6.49
2018-02-18T12:43:20.731Z,6.51
2018-02-18T12:44:29.564Z,6.49
2018-02-18T12:45:38.687Z,6.52
2018-02-18T12:46:47.801Z,6.49
2018-02-18T12:47:56.635Z,6.54
2018-02-18T12:49:05.466Z,6.58
2018-02-18T12:50:14.300Z,6.55
2018-02-18T12:51:23.132Z,6.55
2018-02-18T12:52:31.969Z,6.61
2018-02-18T12:53:40.803Z,6.62
2018-02-18T12:54:50.016Z,6.64
2018-02-18T12:55:58.850Z,6.61
2018-02-18T12:57:07.685Z,6.66
2018-02-18T12:58:16.518Z,6.7
2018-02-18T12:59:25.351Z,6.76
2018-02-18T13:00:34.188Z,6.73
2018-02-18T13:01:43.179Z,6.76
2018-02-18T13:02:52.010Z,6.7
2018-02-18T13:04:00.845Z,6.66
2018-02-18T13:05:09.683Z,6.66
2018-02-18T13:06:18.517Z,6.62
2018-02-18T13:07:27.736Z,6.74
2018-02-18T13:08:36.631Z,6.88
2018-02-18T13:09:45.505Z,6.85
2018-02-18T13:10:54.403Z,6.95
2018-02-18T13:12:03.254Z,6.99
2018-02-18T13:13:12.422Z,6.98
2018-02-18T13:14:21.276Z,7.03
2018-02-18T13:15:30.133Z,7.03
2018-02-18T13:16:38.990Z,6.99
2018-02-18T13:17:48.125Z,7.03
2018-02-18T13:18:57.402Z,7.02
2018-02-18T13:20:06.589Z,6.99
2018-02-18T13:21:15.467Z,7.05
2018-02-18T13:22:24.647Z,7.06
2018-02-18T13:23:33.508Z,6.98
2018-02-18T13:24:42.665Z,7.06
2018-02-18T13:25:51.531Z,7.03
2018-02-18T13:27:00.679Z,7.07
2018-02-18T13:28:09.537Z,6.95
2018-02-18T13:29:18.389Z,7.02
2018-02-18T13:30:27.634Z,7.09
2018-02-18T13:31:36.471Z,7.12
2018-02-18T13:32:45.306Z,7.25
2018-02-18T13:33:54.143Z,7.34
2018-02-18T13:35:02.991Z,7.34
2018-02-18T13:36:11.828Z,7.3
2018-02-18T13:37:20.668Z,7.32
2018-02-18T13:38:29.511Z,7.32
2018-02-18T13:39:38.357Z,7.34
2018-02-18T13:40:47.201Z,7.39
2018-02-18T13:41:56.134Z,7.43
2018-02-18T13:43:05.015Z,7.34
2018-02-18T13:44:14.085Z,7.25
2018-02-18T13:45:22.919Z,7.17
2018-02-18T13:46:31.755Z,7.06
2018-02-18T13:47:40.589Z,7.09
2018-02-18T13:48:49.423Z,7.09
2018-02-18T13:49:58.537Z,7.17
2018-02-18T13:51:07.376Z,7.2
2018-02-18T13:52:16.214Z,7.06
2018-02-18T13:53:25.198Z,7.06
2018-02-18T13:54:34.031Z,7.03
2018-02-18T13:55:42.864Z,7.09
2018-02-18T13:56:51.698Z,7.1
2018-02-18T13:58:00.573Z,7.03
2018-02-18T13:59:09.406Z,7.05
2018-02-18T14:00:18.254Z,7.03
2018-02-18T14:01:27.088Z,7.15
2018-02-18T14:02:35.924Z,7.31
2018-02-18T14:03:44.760Z,7.17
2018-02-18T14:04:53.694Z,7.2
2018-02-18T14:06:02.548Z,7.15
2018-02-18T14:07:11.364Z,7.24
2018-02-18T14:08:20.225Z,7.16
2018-02-18T14:09:29.059Z,7.17
2018-02-18T14:10:37.996Z,7.25
2018-02-18T14:11:46.832Z,7.37
2018-02-18T14:12:55.669Z,7.24
2018-02-18T14:14:04.511Z,7.35
2018-02-18T14:15:13.341Z,7.3
2018-02-18T14:16:22.174Z,7.42
2018-02-18T14:17:31.011Z,7.17
2018-02-18T14:18:39.848Z,7.31
2018-02-18T14:19:48.686Z,7.34
2018-02-18T14:20:57.521Z,7.45
2018-02-18T14:22:06.355Z,7.6
2018-02-18T14:23:15.195Z,7.57
2018-02-18T14:24:24.022Z,7.63
2018-02-18T14:25:32.857Z,7.63
2018-02-18T14:26:41.965Z,7.55
2018-02-18T14:27:50.802Z,7.58
2018-02-18T14:28:59.634Z,7.52
2018-02-18T14:30:08.469Z,7.61
2018-02-18T14:31:17.305Z,7.49
2018-02-18T14:32:26.142Z,7.52
2018-02-18T14:33:35.077Z,7.55
2018-02-18T14:34:43.911Z,7.61
2018-02-18T14:35:52.812Z,7.58
2018-02-18T14:37:01.740Z,7.5
2018-02-18T14:38:10.754Z,7.53
2018-02-18T14:39:20.046Z,7.53
2018-02-18T14:40:28.966Z,7.5
2018-02-18T14:41:37.808Z,7.42
2018-02-18T14:42:46.644Z,7.35
2018-02-18T14:43:55.488Z,7.45
2018-02-18T14:45:04.617Z,7.52
2018-02-18T14:46:13.451Z,7.48
2018-02-18T14:47:22.386Z,7.57
2018-02-18T14:48:31.235Z,7.55
2018-02-18T14:49:40.076Z,7.48
2018-02-18T14:50:48.983Z,7.52
2018-02-18T14:51:57.821Z,7.52
2018-02-18T14:53:06.657Z,7.49
2018-02-18T14:54:15.540Z,7.48
2018-02-18T14:55:24.613Z,7.57
2018-02-18T14:56:33.451Z,7.63
2018-02-18T14:57:42.297Z,7.64
2018-02-18T14:58:51.483Z,7.49
2018-02-18T15:00:00.447Z,7.49
2018-02-18T15:01:09.563Z,7.5
2018-02-18T15:02:18.710Z,7.42
2018-02-18T15:03:27.656Z,7.45